Time,TemperatureF,DewpointF,PressureIn,WindDirection,WindDirectionDegrees,WindSpeedMPH,WindSpeedGustMPH,Humidity,HourlyPrecipIn,Conditions,Clouds,dailyrainin,SoftwareType,DateUTC
2013-03-04 00:00:00,30.1,22.8,29.52,East,90,1.0,5.0,74,0.00,,,0.00,WeatherCatV1.13B119,2013-03-04 05:00:00,
2013-03-04 00:05:00,30.1,22.8,29.52,East,90,1.0,5.0,74,0.00,,,0.00,WeatherCatV1.13B119,2013-03-04 05:05:00,
2013-03-04 00:10:00,29.3,22.4,29.52,South,180,1.0,6.0,75,0.00,,,0.00,WeatherCatV1.13B119,2013-03-04 05:10:00,
2013-03-04 00:15:00,29.3,22.4,29.52,South,180,1.0,6.0,75,0.00,,,0.00,WeatherCatV1.13B119,2013-03-04 05:15:00,
2013-03-04 00:20:00,29.3,22.4,29.52,South,180,1.0,6.0,75,0.00,,,0.00,WeatherCatV1.13B119,2013-03-04 05:20:00,
2013-03-04 00:25:00,29.4,23.4,29.53,NE,45,1.0,4.0,78,0.00,,,0.00,WeatherCatV1.13B119,2013-03-04 05:25:00,
2013-03-04 00:30:00,29.4,23.4,29.53,NE,45,1.0,4.0,78,0.00,,,0.00,WeatherCatV1.13B119,2013-03-04 05:30:00,
2013-03-04 00:35:00,29.4,23.4,29.53,NE,45,1.0,4.0,78,0.00,,,0.00,WeatherCatV1.13B119,2013-03-04 05:35:00,
2013-03-04 00:40:00,29.8,23.2,29.52,NE,45,0.0,3.0,76,0.00,,,0.00,WeatherCatV1.13B119,2013-03-04 05:40:00,
2013-03-04 00:45:00,29.8,23.2,29.52,NE,45,0.0,3.0,76,0.00,,,0.00,WeatherCatV1.13B119,2013-03-04 05:45:00,
2013-03-04 00:50:00,29.8,23.2,29.52,NE,45,0.0,3.0,76,0.00,,,0.00,WeatherCatV1.13B119,2013-03-04 05:50:00,
2013-03-04 00:55:00,29.9,23.6,29.52,NE,45,1.0,4.0,77,0.00,,,0.00,WeatherCatV1.13B119,2013-03-04 05:55:00,
2013-03-04 01:00:00,29.9,23.6,29.52,NE,45,1.0,4.0,77,0.00,,,0.00,WeatherCatV1.13B119,2013-03-04 06:00:00,
2013-03-04 01:05:00,29.9,23.6,29.52,NE,45,1.0,4.0,77,0.00,,,0.00,WeatherCatV1.13B119,2013-03-04 06:05:00,
2013-03-04 01:10:00,29.8,23.2,29.52,ESE,112,1.0,4.0,76,0.00,,,0.00,WeatherCatV1.13B119,2013-03-04 06:10:00,
2013-03-04 01:15:00,29.8,23.2,29.52,ESE,112,1.0,4.0,76,0.00,,,0.00,WeatherCatV1.13B119,2013-03-04 06:15:00,
2013-03-04 01:20:00,29.8,23.2,29.52,ESE,112,1.0,4.0,76,0.00,,,0.00,WeatherCatV1.13B119,2013-03-04 06:20:00,
2013-03-04 01:25:00,29.6,23.0,29.51,SSE,158,1.0,4.0,76,0.00,,,0.00,WeatherCatV1.13B119,2013-03-04 06:25:00,
2013-03-04 01:30:00,29.6,23.0,29.51,SSE,158,1.0,4.0,76,0.00,,,0.00,WeatherCatV1.13B119,2013-03-04 06:30:00,
2013-03-04 01:35:00,29.6,23.0,29.51,SSE,158,1.0,4.0,76,0.00,,,0.00,WeatherCatV1.13B119,2013-03-04 06:35:00,
2013-03-04 01:40:00,29.2,23.2,29.51,SE,135,1.0,5.0,78,0.00,,,0.00,WeatherCatV1.13B119,2013-03-04 06:40:00,
2013-03-04 01:45:00,29.2,23.2,29.51,SE,135,1.0,5.0,78,0.00,,,0.00,WeatherCatV1.13B119,2013-03-04 06:45:00,
2013-03-04 01:50:00,29.2,23.2,29.51,SE,135,1.0,5.0,78,0.00,,,0.00,WeatherCatV1.13B119,2013-03-04 06:50:00,
2013-03-04 01:55:00,29.3,22.7,29.50,ESE,112,2.0,7.0,76,0.00,,,0.00,WeatherCatV1.13B119,2013-03-04 06:55:00,
2013-03-04 02:00:00,29.3,22.7,29.50,ESE,112,2.0,7.0,76,0.00,,,0.00,WeatherCatV1.13B119,2013-03-04 07:00:00,
2013-03-04 02:05:00,29.3,22.7,29.50,ESE,112,2.0,7.0,76,0.00,,,0.00,WeatherCatV1.13B119,2013-03-04 07:05:00,
2013-03-04 02:10:00,29.2,22.6,29.50,East,90,2.0,12.0,76,0.00,,,0.00,WeatherCatV1.13B119,2013-03-04 07:10:00,
2013-03-04 02:15:00,29.2,22.6,29.50,East,90,2.0,12.0,76,0.00,,,0.00,WeatherCatV1.13B119,2013-03-04 07:15:00,
2013-03-04 02:20:00,29.2,22.6,29.50,East,90,2.0,12.0,76,0.00,,,0.00,WeatherCatV1.13B119,2013-03-04 07:20:00,
2013-03-04 02:25:00,29.6,22.7,29.50,NE,45,2.0,6.0,75,0.00,,,0.00,WeatherCatV1.13B119,2013-03-04 07:25:00,
2013-03-04 02:30:00,29.6,22.7,29.50,NE,45,2.0,6.0,75,0.00,,,0.00,WeatherCatV1.13B119,2013-03-04 07:30:00,
2013-03-04 02:35:00,29.6,22.7,29.50,NE,45,2.0,6.0,75,0.00,,,0.00,WeatherCatV1.13B119,2013-03-04 07:35:00,
2013-03-04 02:40:00,29.2,22.3,29.50,ESE,112,2.0,7.0,75,0.00,,,0.00,WeatherCatV1.13B119,2013-03-04 07:40:00,
2013-03-04 02:45:00,29.2,22.3,29.50,ESE,112,2.0,7.0,75,0.00,,,0.00,WeatherCatV1.13B119,2013-03-04 07:45:00,
2013-03-04 02:50:00,29.2,22.3,29.50,ESE,112,2.0,7.0,75,0.00,,,0.00,WeatherCatV1.13B119,2013-03-04 07:50:00,
2013-03-04 02:55:00,29.3,22.7,29.50,ENE,68,2.0,8.0,76,0.00,,,0.00,WeatherCatV1.13B119,2013-03-04 07:55:00,
2013-03-04 03:00:00,29.3,22.7,29.50,ENE,68,2.0,8.0,76,0.00,,,0.00,WeatherCatV1.13B119,2013-03-04 08:00:00,
2013-03-04 03:05:00,29.3,22.7,29.50,ENE,68,2.0,8.0,76,0.00,,,0.00,WeatherCatV1.13B119,2013-03-04 08:05:00,
2013-03-04 03:10:00,28.6,22.3,29.49,ENE,68,2.0,7.0,77,0.00,,,0.00,WeatherCatV1.13B119,2013-03-04 08:10:00,
2013-03-04 03:15:00,28.6,22.3,29.49,ENE,68,2.0,7.0,77,0.00,,,0.00,WeatherCatV1.13B119,2013-03-04 08:15:00,
2013-03-04 03:20:00,28.6,22.3,29.49,ENE,68,2.0,7.0,77,0.00,,,0.00,WeatherCatV1.13B119,2013-03-04 08:20:00,
2013-03-04 03:25:00,28.7,22.4,29.50,ENE,68,3.0,7.0,77,0.00,,,0.00,WeatherCatV1.13B119,2013-03-04 08:25:00,
2013-03-04 03:30:00,28.7,22.4,29.50,ENE,68,3.0,7.0,77,0.00,,,0.00,WeatherCatV1.13B119,2013-03-04 08:30:00,
2013-03-04 03:35:00,28.7,22.4,29.50,ENE,68,3.0,7.0,77,0.00,,,0.00,WeatherCatV1.13B119,2013-03-04 08:35:00,
2013-03-04 03:40:00,29.1,22.2,29.49,ENE,68,3.0,12.0,75,0.00,,,0.00,WeatherCatV1.13B119,2013-03-04 08:40:00,
2013-03-04 03:45:00,29.1,22.2,29.49,ENE,68,3.0,12.0,75,0.00,,,0.00,WeatherCatV1.13B119,2013-03-04 08:45:00,
2013-03-04 03:50:00,29.1,22.2,29.49,ENE,68,3.0,12.0,75,0.00,,,0.00,WeatherCatV1.13B119,2013-03-04 08:50:00,
2013-03-04 03:55:00,29.0,22.1,29.49,East,90,3.0,10.0,75,0.00,,,0.00,WeatherCatV1.13B119,2013-03-04 08:55:00,
2013-03-04 04:00:00,29.0,22.1,29.49,East,90,3.0,10.0,75,0.00,,,0.00,WeatherCatV1.13B119,2013-03-04 09:00:00,
2013-03-04 04:05:00,29.0,22.1,29.49,East,90,3.0,10.0,75,0.00,,,0.00,WeatherCatV1.13B119,2013-03-04 09:05:00,
2013-03-04 04:10:00,29.1,21.9,29.49,NE,45,3.0,11.0,74,0.00,,,0.00,WeatherCatV1.13B119,2013-03-04 09:10:00,
2013-03-04 04:15:00,29.1,21.9,29.49,NE,45,3.0,11.0,74,0.00,,,0.00,WeatherCatV1.13B119,2013-03-04 09:15:00,
2013-03-04 04:20:00,29.1,21.9,29.49,NE,45,3.0,11.0,74,0.00,,,0.00,WeatherCatV1.13B119,2013-03-04 09:20:00,
2013-03-04 04:25:00,29.3,22.1,29.51,ENE,68,3.0,12.0,74,0.00,,,0.00,WeatherCatV1.13B119,2013-03-04 09:25:00,
2013-03-04 04:30:00,29.3,22.1,29.51,ENE,68,3.0,12.0,74,0.00,,,0.00,WeatherCatV1.13B119,2013-03-04 09:30:00,
2013-03-04 04:35:00,29.3,22.1,29.51,ENE,68,3.0,12.0,74,0.00,,,0.00,WeatherCatV1.13B119,2013-03-04 09:35:00,
2013-03-04 04:40:00,29.1,21.9,29.51,ENE,68,2.0,7.0,74,0.00,,,0.00,WeatherCatV1.13B119,2013-03-04 09:40:00,
2013-03-04 04:45:00,29.1,21.9,29.51,ENE,68,2.0,7.0,74,0.00,,,0.00,WeatherCatV1.13B119,2013-03-04 09:45:00,
2013-03-04 04:50:00,29.1,21.9,29.51,ENE,68,2.0,7.0,74,0.00,,,0.00,WeatherCatV1.13B119,2013-03-04 09:50:00,
2013-03-04 04:55:00,28.5,21.6,29.51,NE,45,2.0,10.0,75,0.00,,,0.00,WeatherCatV1.13B119,2013-03-04 09:55:00,
2013-03-04 05:00:00,28.5,21.6,29.51,NE,45,2.0,10.0,75,0.00,,,0.00,WeatherCatV1.13B119,2013-03-04 10:00:00,
2013-03-04 05:05:00,28.5,21.6,29.51,NE,45,2.0,10.0,75,0.00,,,0.00,WeatherCatV1.13B119,2013-03-04 10:05:00,
2013-03-04 05:10:00,27.6,21.3,29.51,NE,45,1.0,4.0,77,0.00,,,0.00,WeatherCatV1.13B119,2013-03-04 10:10:00,
2013-03-04 05:15:00,27.6,21.3,29.51,NE,45,1.0,4.0,77,0.00,,,0.00,WeatherCatV1.13B119,2013-03-04 10:15:00,
2013-03-04 05:20:00,27.6,21.3,29.51,NE,45,1.0,4.0,77,0.00,,,0.00,WeatherCatV1.13B119,2013-03-04 10:20:00,
2013-03-04 05:25:00,27.9,21.6,29.51,ENE,68,2.0,5.0,77,0.00,,,0.00,WeatherCatV1.13B119,2013-03-04 10:25:00,
2013-03-04 05:30:00,27.9,21.6,29.51,ENE,68,2.0,5.0,77,0.00,,,0.00,WeatherCatV1.13B119,2013-03-04 10:30:00,
2013-03-04 05:35:00,27.9,21.6,29.51,ENE,68,2.0,5.0,77,0.00,,,0.00,WeatherCatV1.13B119,2013-03-04 10:35:00,
2013-03-04 05:40:00,28.0,21.4,29.51,ESE,112,2.0,5.0,76,0.00,,,0.00,WeatherCatV1.13B119,2013-03-04 10:40:00,
2013-03-04 05:45:00,28.0,21.4,29.51,ESE,112,2.0,5.0,76,0.00,,,0.00,WeatherCatV1.13B119,2013-03-04 10:45:00,
2013-03-04 05:50:00,28.0,21.4,29.51,ESE,112,2.0,5.0,76,0.00,,,0.00,WeatherCatV1.13B119,2013-03-04 10:50:00,
2013-03-04 05:55:00,28.0,21.7,29.50,SE,135,1.0,5.0,77,0.00,,,0.00,WeatherCatV1.13B119,2013-03-04 10:55:00,
2013-03-04 06:00:00,28.0,21.7,29.50,SE,135,1.0,5.0,77,0.00,,,0.00,WeatherCatV1.13B119,2013-03-04 11:00:00,
2013-03-04 06:05:00,28.0,21.7,29.50,SE,135,1.0,5.0,77,0.00,,,0.00,WeatherCatV1.13B119,2013-03-04 11:05:00,
2013-03-04 06:10:00,28.6,21.7,29.50,East,90,2.0,12.0,75,0.00,,,0.00,WeatherCatV1.13B119,2013-03-04 11:10:00,
2013-03-04 06:15:00,28.6,21.7,29.50,East,90,2.0,12.0,75,0.00,,,0.00,WeatherCatV1.13B119,2013-03-04 11:15:00,
2013-03-04 06:20:00,28.6,21.7,29.50,East,90,2.0,12.0,75,0.00,,,0.00,WeatherCatV1.13B119,2013-03-04 11:20:00,
2013-03-04 06:25:00,28.5,21.6,29.51,ENE,68,1.0,10.0,75,0.00,,,0.00,WeatherCatV1.13B119,2013-03-04 11:25:00,
2013-03-04 06:30:00,28.5,21.6,29.51,ENE,68,1.0,10.0,75,0.00,,,0.00,WeatherCatV1.13B119,2013-03-04 11:30:00,
2013-03-04 06:35:00,28.5,21.6,29.51,ENE,68,1.0,10.0,75,0.00,,,0.00,WeatherCatV1.13B119,2013-03-04 11:35:00,
2013-03-04 06:40:00,29.2,22.3,29.51,ENE,68,1.0,10.0,75,0.00,,,0.00,WeatherCatV1.13B119,2013-03-04 11:40:00,
2013-03-04 06:45:00,29.2,22.3,29.51,ENE,68,1.0,10.0,75,0.00,,,0.00,WeatherCatV1.13B119,2013-03-04 11:45:00,
2013-03-04 06:50:00,29.2,22.3,29.51,ENE,68,1.0,10.0,75,0.00,,,0.00,WeatherCatV1.13B119,2013-03-04 11:50:00,
2013-03-04 06:55:00,28.9,22.0,29.51,ESE,112,1.0,4.0,75,0.00,,,0.00,WeatherCatV1.13B119,2013-03-04 11:55:00,
2013-03-04 07:00:00,28.9,22.0,29.51,ESE,112,1.0,4.0,75,0.00,,,0.00,WeatherCatV1.13B119,2013-03-04 12:00:00,
2013-03-04 07:05:00,28.9,22.0,29.51,ESE,112,1.0,4.0,75,0.00,,,0.00,WeatherCatV1.13B119,2013-03-04 12:05:00,
2013-03-04 07:10:00,28.7,22.4,29.51,East,90,1.0,3.0,77,0.00,,,0.00,WeatherCatV1.13B119,2013-03-04 12:10:00,
2013-03-04 07:15:00,28.7,22.4,29.51,East,90,1.0,3.0,77,0.00,,,0.00,WeatherCatV1.13B119,2013-03-04 12:15:00,
2013-03-04 07:20:00,28.7,22.4,29.51,East,90,1.0,3.0,77,0.00,,,0.00,WeatherCatV1.13B119,2013-03-04 12:20:00,
2013-03-04 07:25:00,29.4,22.5,29.51,North,0,1.0,4.0,75,0.00,,,0.00,WeatherCatV1.13B119,2013-03-04 12:25:00,
2013-03-04 07:30:00,29.4,22.5,29.51,North,0,1.0,4.0,75,0.00,,,0.00,WeatherCatV1.13B119,2013-03-04 12:30:00,
2013-03-04 07:35:00,29.4,22.5,29.51,North,0,1.0,4.0,75,0.00,,,0.00,WeatherCatV1.13B119,2013-03-04 12:35:00,
2013-03-04 07:40:00,29.8,22.5,29.51,NNE,22,1.0,4.0,74,0.00,,,0.00,WeatherCatV1.13B119,2013-03-04 12:40:00,
2013-03-04 07:45:00,29.8,22.5,29.51,NNE,22,1.0,4.0,74,0.00,,,0.00,WeatherCatV1.13B119,2013-03-04 12:45:00,
2013-03-04 07:50:00,29.8,22.5,29.51,NNE,22,1.0,4.0,74,0.00,,,0.00,WeatherCatV1.13B119,2013-03-04 12:50:00,
2013-03-04 07:55:00,30.2,23.6,29.52,East,90,1.0,4.0,76,0.00,,,0.00,WeatherCatV1.13B119,2013-03-04 12:55:00,
2013-03-04 08:00:00,30.2,23.6,29.52,East,90,1.0,4.0,76,0.00,,,0.00,WeatherCatV1.13B119,2013-03-04 13:00:00,
2013-03-04 08:05:00,30.2,23.6,29.52,East,90,1.0,4.0,76,0.00,,,0.00,WeatherCatV1.13B119,2013-03-04 13:05:00,
2013-03-04 08:10:00,30.4,22.5,29.52,SSE,158,1.0,6.0,72,0.00,,,0.00,WeatherCatV1.13B119,2013-03-04 13:10:00,
2013-03-04 08:15:00,30.4,22.5,29.52,SSE,158,1.0,6.0,72,0.00,,,0.00,WeatherCatV1.13B119,2013-03-04 13:15:00,
2013-03-04 08:20:00,30.4,22.5,29.52,SSE,158,1.0,6.0,72,0.00,,,0.00,WeatherCatV1.13B119,2013-03-04 13:20:00,
2013-03-04 08:25:00,30.7,22.8,29.53,SE,135,1.0,5.0,72,0.00,,,0.00,WeatherCatV1.13B119,2013-03-04 13:25:00,
2013-03-04 08:30:00,30.7,22.8,29.53,SE,135,1.0,5.0,72,0.00,,,0.00,WeatherCatV1.13B119,2013-03-04 13:30:00,
2013-03-04 08:35:00,30.7,22.8,29.53,SE,135,1.0,5.0,72,0.00,,,0.00,WeatherCatV1.13B119,2013-03-04 13:35:00,
2013-03-04 08:40:00,30.8,21.2,29.52,SE,135,1.0,4.0,67,0.00,,,0.00,WeatherCatV1.13B119,2013-03-04 13:40:00,
2013-03-04 08:45:00,30.8,21.2,29.52,SE,135,1.0,4.0,67,0.00,,,0.00,WeatherCatV1.13B119,2013-03-04 13:45:00,
2013-03-04 08:50:00,30.8,21.2,29.52,SE,135,1.0,4.0,67,0.00,,,0.00,WeatherCatV1.13B119,2013-03-04 13:50:00,
2013-03-04 08:55:00,30.3,20.7,29.52,ESE,112,1.0,4.0,67,0.00,,,0.00,WeatherCatV1.13B119,2013-03-04 13:55:00,
2013-03-04 09:00:00,30.3,20.7,29.52,ESE,112,1.0,4.0,67,0.00,,,0.00,WeatherCatV1.13B119,2013-03-04 14:00:00,
2013-03-04 09:05:00,30.3,20.7,29.52,ESE,112,1.0,4.0,67,0.00,,,0.00,WeatherCatV1.13B119,2013-03-04 14:05:00,
2013-03-04 09:10:00,30.6,21.6,29.52,East,90,1.0,4.0,69,0.00,,,0.00,WeatherCatV1.13B119,2013-03-04 14:10:00,
2013-03-04 09:15:00,30.6,21.6,29.52,East,90,1.0,4.0,69,0.00,,,0.00,WeatherCatV1.13B119,2013-03-04 14:15:00,
2013-03-04 09:20:00,30.6,21.6,29.52,East,90,1.0,4.0,69,0.00,,,0.00,WeatherCatV1.13B119,2013-03-04 14:20:00,
2013-03-04 09:25:00,31.3,22.0,29.52,East,90,0.0,2.0,68,0.00,,,0.00,WeatherCatV1.13B119,2013-03-04 14:25:00,
2013-03-04 09:30:00,31.3,22.0,29.52,East,90,0.0,2.0,68,0.00,,,0.00,WeatherCatV1.13B119,2013-03-04 14:30:00,
2013-03-04 09:35:00,31.3,22.0,29.52,East,90,0.0,2.0,68,0.00,,,0.00,WeatherCatV1.13B119,2013-03-04 14:35:00,
2013-03-04 09:40:00,32.1,21.7,29.51,ENE,68,0.0,4.0,65,0.00,,,0.00,WeatherCatV1.13B119,2013-03-04 14:40:00,
2013-03-04 09:45:00,32.1,21.7,29.51,ENE,68,0.0,4.0,65,0.00,,,0.00,WeatherCatV1.13B119,2013-03-04 14:45:00,
2013-03-04 09:50:00,32.1,21.7,29.51,ENE,68,0.0,4.0,65,0.00,,,0.00,WeatherCatV1.13B119,2013-03-04 14:50:00,
2013-03-04 09:55:00,33.1,22.6,29.51,East,90,0.0,3.0,65,0.00,,,0.00,WeatherCatV1.13B119,2013-03-04 14:55:00,
2013-03-04 10:00:00,33.1,22.6,29.51,East,90,0.0,3.0,65,0.00,,,0.00,WeatherCatV1.13B119,2013-03-04 15:00:00,
2013-03-04 10:05:00,33.1,22.6,29.51,East,90,0.0,3.0,65,0.00,,,0.00,WeatherCatV1.13B119,2013-03-04 15:05:00,
2013-03-04 10:10:00,34.4,23.1,29.51,East,90,1.0,4.0,63,0.00,,,0.00,WeatherCatV1.13B119,2013-03-04 15:10:00,
2013-03-04 10:15:00,34.4,23.1,29.51,East,90,1.0,4.0,63,0.00,,,0.00,WeatherCatV1.13B119,2013-03-04 15:15:00,
2013-03-04 10:20:00,34.4,23.1,29.51,East,90,1.0,4.0,63,0.00,,,0.00,WeatherCatV1.13B119,2013-03-04 15:20:00,
2013-03-04 10:25:00,34.4,23.1,29.51,ESE,112,4.0,14.0,63,0.00,,,0.00,WeatherCatV1.13B119,2013-03-04 15:25:00,
2013-03-04 10:30:00,34.4,23.1,29.51,ESE,112,4.0,14.0,63,0.00,,,0.00,WeatherCatV1.13B119,2013-03-04 15:30:00,
2013-03-04 10:35:00,34.4,23.1,29.51,ESE,112,4.0,14.0,63,0.00,,,0.00,WeatherCatV1.13B119,2013-03-04 15:35:00,
2013-03-04 10:40:00,34.4,23.1,29.50,ESE,112,3.0,12.0,63,0.00,,,0.00,WeatherCatV1.13B119,2013-03-04 15:40:00,
2013-03-04 10:45:00,34.4,23.1,29.50,ESE,112,3.0,12.0,63,0.00,,,0.00,WeatherCatV1.13B119,2013-03-04 15:45:00,
2013-03-04 10:50:00,34.4,23.1,29.50,ESE,112,3.0,12.0,63,0.00,,,0.00,WeatherCatV1.13B119,2013-03-04 15:50:00,
2013-03-04 10:55:00,33.5,23.0,29.48,ESE,112,4.0,9.0,65,0.00,,,0.00,WeatherCatV1.13B119,2013-03-04 15:55:00,
2013-03-04 11:00:00,33.5,23.0,29.48,ESE,112,4.0,9.0,65,0.00,,,0.00,WeatherCatV1.13B119,2013-03-04 16:00:00,
2013-03-04 11:05:00,33.5,23.0,29.48,ESE,112,4.0,9.0,65,0.00,,,0.00,WeatherCatV1.13B119,2013-03-04 16:05:00,
2013-03-04 11:10:00,34.0,23.8,29.48,East,90,3.0,10.0,66,0.00,,,0.00,WeatherCatV1.13B119,2013-03-04 16:10:00,
2013-03-04 11:15:00,34.0,23.8,29.48,East,90,3.0,10.0,66,0.00,,,0.00,WeatherCatV1.13B119,2013-03-04 16:15:00,
2013-03-04 11:20:00,34.0,23.8,29.48,East,90,3.0,10.0,66,0.00,,,0.00,WeatherCatV1.13B119,2013-03-04 16:20:00,
2013-03-04 11:25:00,35.4,24.1,29.49,SSE,158,3.0,9.0,63,0.00,,,0.00,WeatherCatV1.13B119,2013-03-04 16:25:00,
2013-03-04 11:30:00,35.4,24.1,29.49,SSE,158,3.0,9.0,63,0.00,,,0.00,WeatherCatV1.13B119,2013-03-04 16:30:00,
2013-03-04 11:35:00,35.4,24.1,29.49,SSE,158,3.0,9.0,63,0.00,,,0.00,WeatherCatV1.13B119,2013-03-04 16:35:00,
2013-03-04 11:40:00,34.5,22.8,29.49,ESE,112,4.0,18.0,62,0.00,,,0.00,WeatherCatV1.13B119,2013-03-04 16:40:00,
2013-03-04 11:45:00,34.5,22.8,29.49,ESE,112,4.0,18.0,62,0.00,,,0.00,WeatherCatV1.13B119,2013-03-04 16:45:00,
2013-03-04 11:50:00,34.5,22.8,29.49,ESE,112,4.0,18.0,62,0.00,,,0.00,WeatherCatV1.13B119,2013-03-04 16:50:00,
2013-03-04 11:55:00,34.8,23.5,29.49,ENE,68,2.0,11.0,63,0.00,,,0.00,WeatherCatV1.13B119,2013-03-04 16:55:00,
2013-03-04 12:00:00,34.8,23.5,29.49,ENE,68,2.0,11.0,63,0.00,,,0.00,WeatherCatV1.13B119,2013-03-04 17:00:00,
2013-03-04 12:05:00,34.8,23.5,29.49,ENE,68,2.0,11.0,63,0.00,,,0.00,WeatherCatV1.13B119,2013-03-04 17:05:00,
2013-03-04 12:10:00,35.2,24.3,29.49,SSW,202,3.0,10.0,64,0.00,,,0.00,WeatherCatV1.13B119,2013-03-04 17:10:00,
2013-03-04 12:15:00,35.2,24.3,29.49,SSW,202,3.0,10.0,64,0.00,,,0.00,WeatherCatV1.13B119,2013-03-04 17:15:00,
2013-03-04 12:20:00,35.2,24.3,29.49,SSW,202,3.0,10.0,64,0.00,,,0.00,WeatherCatV1.13B119,2013-03-04 17:20:00,
2013-03-04 12:25:00,34.4,24.2,29.49,SE,135,3.0,9.0,66,0.00,,,0.00,WeatherCatV1.13B119,2013-03-04 17:25:00,
2013-03-04 12:30:00,34.4,24.2,29.49,SE,135,3.0,9.0,66,0.00,,,0.00,WeatherCatV1.13B119,2013-03-04 17:30:00,
2013-03-04 12:35:00,34.4,24.2,29.49,SE,135,3.0,9.0,66,0.00,,,0.00,WeatherCatV1.13B119,2013-03-04 17:35:00,
2013-03-04 12:40:00,34.4,24.2,29.50,East,90,2.0,11.0,66,0.00,,,0.00,WeatherCatV1.13B119,2013-03-04 17:40:00,
2013-03-04 12:45:00,34.4,24.2,29.50,East,90,2.0,11.0,66,0.00,,,0.00,WeatherCatV1.13B119,2013-03-04 17:45:00,
2013-03-04 12:50:00,34.4,24.2,29.50,East,90,2.0,11.0,66,0.00,,,0.00,WeatherCatV1.13B119,2013-03-04 17:50:00,
2013-03-04 12:55:00,34.8,24.6,29.50,East,90,1.0,6.0,66,0.00,,,0.00,WeatherCatV1.13B119,2013-03-04 17:55:00,
2013-03-04 13:00:00,34.8,24.6,29.50,East,90,1.0,6.0,66,0.00,,,0.00,WeatherCatV1.13B119,2013-03-04 18:00:00,
2013-03-04 13:05:00,34.8,24.6,29.50,East,90,1.0,6.0,66,0.00,,,0.00,WeatherCatV1.13B119,2013-03-04 18:05:00,
2013-03-04 13:10:00,34.5,24.3,29.51,SE,135,1.0,8.0,66,0.00,,,0.00,WeatherCatV1.13B119,2013-03-04 18:10:00,
2013-03-04 13:15:00,34.5,24.3,29.51,SE,135,1.0,8.0,66,0.00,,,0.00,WeatherCatV1.13B119,2013-03-04 18:15:00,
2013-03-04 13:20:00,34.5,24.3,29.51,SE,135,1.0,8.0,66,0.00,,,0.00,WeatherCatV1.13B119,2013-03-04 18:20:00,
2013-03-04 13:25:00,34.0,24.2,29.51,ESE,112,1.0,3.0,67,0.00,,,0.00,WeatherCatV1.13B119,2013-03-04 18:25:00,
2013-03-04 13:30:00,34.0,24.2,29.51,ESE,112,1.0,3.0,67,0.00,,,0.00,WeatherCatV1.13B119,2013-03-04 18:30:00,
2013-03-04 13:35:00,34.0,24.2,29.51,ESE,112,1.0,3.0,67,0.00,,,0.00,WeatherCatV1.13B119,2013-03-04 18:35:00,
2013-03-04 13:40:00,33.5,23.4,29.51,WSW,248,2.0,6.0,66,0.00,,,0.00,WeatherCatV1.13B119,2013-03-04 18:40:00,
2013-03-04 13:45:00,33.5,23.4,29.51,WSW,248,2.0,6.0,66,0.00,,,0.00,WeatherCatV1.13B119,2013-03-04 18:45:00,
2013-03-04 13:50:00,33.5,23.4,29.51,WSW,248,2.0,6.0,66,0.00,,,0.00,WeatherCatV1.13B119,2013-03-04 18:50:00,
2013-03-04 13:55:00,33.9,23.4,29.51,SSE,158,2.0,6.0,65,0.00,,,0.00,WeatherCatV1.13B119,2013-03-04 18:55:00,
2013-03-04 14:00:00,33.9,23.4,29.51,SSE,158,2.0,6.0,65,0.00,,,0.00,WeatherCatV1.13B119,2013-03-04 19:00:00,
2013-03-04 14:05:00,33.9,23.4,29.51,SSE,158,2.0,6.0,65,0.00,,,0.00,WeatherCatV1.13B119,2013-03-04 19:05:00,
2013-03-04 14:10:00,34.1,23.6,29.51,East,90,3.0,12.0,65,0.00,,,0.00,WeatherCatV1.13B119,2013-03-04 19:10:00,
2013-03-04 14:15:00,34.1,23.6,29.51,East,90,3.0,12.0,65,0.00,,,0.00,WeatherCatV1.13B119,2013-03-04 19:15:00,
2013-03-04 14:20:00,34.1,23.6,29.51,East,90,3.0,12.0,65,0.00,,,0.00,WeatherCatV1.13B119,2013-03-04 19:20:00,
2013-03-04 14:25:00,33.9,23.4,29.53,NE,45,2.0,9.0,65,0.00,,,0.00,WeatherCatV1.13B119,2013-03-04 19:25:00,
2013-03-04 14:30:00,33.9,23.4,29.53,NE,45,2.0,9.0,65,0.00,,,0.00,WeatherCatV1.13B119,2013-03-04 19:30:00,
2013-03-04 14:35:00,33.9,23.4,29.53,NE,45,2.0,9.0,65,0.00,,,0.00,WeatherCatV1.13B119,2013-03-04 19:35:00,
2013-03-04 14:40:00,33.5,23.4,29.54,West,270,2.0,13.0,66,0.00,,,0.00,WeatherCatV1.13B119,2013-03-04 19:40:00,
2013-03-04 14:45:00,33.5,23.4,29.54,West,270,2.0,13.0,66,0.00,,,0.00,WeatherCatV1.13B119,2013-03-04 19:45:00,
2013-03-04 14:50:00,33.5,23.4,29.54,West,270,2.0,13.0,66,0.00,,,0.00,WeatherCatV1.13B119,2013-03-04 19:50:00,
2013-03-04 14:55:00,32.5,22.4,29.53,ENE,68,2.0,12.0,66,0.00,,,0.00,WeatherCatV1.13B119,2013-03-04 19:55:00,
2013-03-04 15:00:00,32.5,22.4,29.53,ENE,68,2.0,12.0,66,0.00,,,0.00,WeatherCatV1.13B119,2013-03-04 20:00:00,
2013-03-04 15:05:00,32.5,22.4,29.53,ENE,68,2.0,12.0,66,0.00,,,0.00,WeatherCatV1.13B119,2013-03-04 20:05:00,
2013-03-04 15:10:00,32.4,23.0,29.54,ESE,112,2.0,5.0,68,0.00,,,0.00,WeatherCatV1.13B119,2013-03-04 20:10:00,
2013-03-04 15:15:00,32.4,23.0,29.54,ESE,112,2.0,5.0,68,0.00,,,0.00,WeatherCatV1.13B119,2013-03-04 20:15:00,
2013-03-04 15:20:00,32.4,23.0,29.54,ESE,112,2.0,5.0,68,0.00,,,0.00,WeatherCatV1.13B119,2013-03-04 20:20:00,
2013-03-04 15:25:00,31.8,22.1,29.54,SE,135,3.0,12.0,67,0.00,,,0.00,WeatherCatV1.13B119,2013-03-04 20:25:00,
2013-03-04 15:30:00,31.8,22.1,29.54,SE,135,3.0,12.0,67,0.00,,,0.00,WeatherCatV1.13B119,2013-03-04 20:30:00,
2013-03-04 15:35:00,31.8,22.1,29.54,SE,135,3.0,12.0,67,0.00,,,0.00,WeatherCatV1.13B119,2013-03-04 20:35:00,
2013-03-04 15:40:00,31.0,22.7,29.55,SSE,158,3.0,8.0,71,0.00,,,0.00,WeatherCatV1.13B119,2013-03-04 20:40:00,
2013-03-04 15:45:00,31.0,22.7,29.55,SSE,158,3.0,8.0,71,0.00,,,0.00,WeatherCatV1.13B119,2013-03-04 20:45:00,
2013-03-04 15:50:00,31.0,22.7,29.55,SSE,158,3.0,8.0,71,0.00,,,0.00,WeatherCatV1.13B119,2013-03-04 20:50:00,
2013-03-04 15:55:00,30.4,22.8,29.55,South,180,1.0,4.0,73,0.00,,,0.00,WeatherCatV1.13B119,2013-03-04 20:55:00,
2013-03-04 16:00:00,30.4,22.8,29.55,South,180,1.0,4.0,73,0.00,,,0.00,WeatherCatV1.13B119,2013-03-04 21:00:00,
2013-03-04 16:05:00,30.4,22.8,29.55,South,180,1.0,4.0,73,0.00,,,0.00,WeatherCatV1.13B119,2013-03-04 21:05:00,
2013-03-04 16:10:00,30.2,23.3,29.56,SSE,158,1.0,5.0,75,0.00,,,0.00,WeatherCatV1.13B119,2013-03-04 21:10:00,
2013-03-04 16:15:00,30.2,23.3,29.56,SSE,158,1.0,5.0,75,0.00,,,0.00,WeatherCatV1.13B119,2013-03-04 21:15:00,
2013-03-04 16:20:00,30.2,23.3,29.56,SSE,158,1.0,5.0,75,0.00,,,0.00,WeatherCatV1.13B119,2013-03-04 21:20:00,
2013-03-04 16:25:00,30.4,22.5,29.56,NE,45,2.0,7.0,72,0.00,,,0.00,WeatherCatV1.13B119,2013-03-04 21:25:00,
2013-03-04 16:30:00,30.4,22.5,29.56,NE,45,2.0,7.0,72,0.00,,,0.00,WeatherCatV1.13B119,2013-03-04 21:30:00,
2013-03-04 16:35:00,30.4,22.5,29.56,NE,45,2.0,7.0,72,0.00,,,0.00,WeatherCatV1.13B119,2013-03-04 21:35:00,
2013-03-04 16:40:00,30.4,22.1,29.58,East,90,2.0,7.0,71,0.00,,,0.00,WeatherCatV1.13B119,2013-03-04 21:40:00,
2013-03-04 16:45:00,30.4,22.1,29.58,East,90,2.0,7.0,71,0.00,,,0.00,WeatherCatV1.13B119,2013-03-04 21:45:00,
2013-03-04 16:50:00,30.4,22.1,29.58,East,90,2.0,7.0,71,0.00,,,0.00,WeatherCatV1.13B119,2013-03-04 21:50:00,
2013-03-04 16:55:00,30.2,22.0,29.59,South,180,2.0,6.0,71,0.00,,,0.00,WeatherCatV1.13B119,2013-03-04 21:55:00,
2013-03-04 17:00:00,30.2,22.0,29.59,South,180,2.0,6.0,71,0.00,,,0.00,WeatherCatV1.13B119,2013-03-04 22:00:00,
2013-03-04 17:05:00,30.2,22.0,29.59,South,180,2.0,6.0,71,0.00,,,0.00,WeatherCatV1.13B119,2013-03-04 22:05:00,
2013-03-04 17:10:00,29.9,22.6,29.58,East,90,3.0,10.0,74,0.00,,,0.00,WeatherCatV1.13B119,2013-03-04 22:10:00,
2013-03-04 17:15:00,29.9,22.6,29.58,East,90,3.0,10.0,74,0.00,,,0.00,WeatherCatV1.13B119,2013-03-04 22:15:00,
2013-03-04 17:20:00,29.9,22.6,29.58,East,90,3.0,10.0,74,0.00,,,0.00,WeatherCatV1.13B119,2013-03-04 22:20:00,
2013-03-04 17:25:00,29.4,22.2,29.59,East,90,4.0,10.0,74,0.00,,,0.00,WeatherCatV1.13B119,2013-03-04 22:25:00,
2013-03-04 17:30:00,29.4,22.2,29.59,East,90,4.0,10.0,74,0.00,,,0.00,WeatherCatV1.13B119,2013-03-04 22:30:00,
2013-03-04 17:35:00,29.4,22.2,29.59,East,90,4.0,10.0,74,0.00,,,0.00,WeatherCatV1.13B119,2013-03-04 22:35:00,
2013-03-04 17:40:00,28.9,22.0,29.61,ESE,112,3.0,6.0,75,0.00,,,0.00,WeatherCatV1.13B119,2013-03-04 22:40:00,
2013-03-04 17:45:00,28.9,22.0,29.61,ESE,112,3.0,6.0,75,0.00,,,0.00,WeatherCatV1.13B119,2013-03-04 22:45:00,
2013-03-04 17:50:00,28.9,22.0,29.61,ESE,112,3.0,6.0,75,0.00,,,0.00,WeatherCatV1.13B119,2013-03-04 22:50:00,
2013-03-04 17:55:00,28.5,22.2,29.62,SE,135,2.0,5.0,77,0.00,,,0.00,WeatherCatV1.13B119,2013-03-04 22:55:00,
2013-03-04 18:00:00,28.5,22.2,29.62,SE,135,2.0,5.0,77,0.00,,,0.00,WeatherCatV1.13B119,2013-03-04 23:00:00,
2013-03-04 18:05:00,28.5,22.2,29.62,SE,135,2.0,5.0,77,0.00,,,0.00,WeatherCatV1.13B119,2013-03-04 23:05:00,
2013-03-04 18:10:00,28.0,21.4,29.62,East,90,3.0,7.0,76,0.00,,,0.00,WeatherCatV1.13B119,2013-03-04 23:10:00,
2013-03-04 18:15:00,28.0,21.4,29.62,East,90,3.0,7.0,76,0.00,,,0.00,WeatherCatV1.13B119,2013-03-04 23:15:00,
2013-03-04 18:20:00,28.0,21.4,29.62,East,90,3.0,7.0,76,0.00,,,0.00,WeatherCatV1.13B119,2013-03-04 23:20:00,
2013-03-04 18:25:00,28.1,21.5,29.62,East,90,4.0,9.0,76,0.00,,,0.00,WeatherCatV1.13B119,2013-03-04 23:25:00,
2013-03-04 18:30:00,28.1,21.5,29.62,East,90,4.0,9.0,76,0.00,,,0.00,WeatherCatV1.13B119,2013-03-04 23:30:00,
2013-03-04 18:35:00,28.1,21.5,29.62,East,90,4.0,9.0,76,0.00,,,0.00,WeatherCatV1.13B119,2013-03-04 23:35:00,
2013-03-04 18:40:00,28.4,22.1,29.63,ENE,68,4.0,9.0,77,0.00,,,0.00,WeatherCatV1.13B119,2013-03-04 23:40:00,
2013-03-04 18:45:00,28.4,22.1,29.63,ENE,68,4.0,9.0,77,0.00,,,0.00,WeatherCatV1.13B119,2013-03-04 23:45:00,
2013-03-04 18:50:00,28.4,22.1,29.63,ENE,68,4.0,9.0,77,0.00,,,0.00,WeatherCatV1.13B119,2013-03-04 23:50:00,
2013-03-04 18:55:00,28.3,22.3,29.63,ENE,68,3.0,7.0,78,0.00,,,0.00,WeatherCatV1.13B119,2013-03-04 23:55:00,
2013-03-04 19:00:00,28.3,22.3,29.63,ENE,68,3.0,7.0,78,0.00,,,0.00,WeatherCatV1.13B119,2013-03-05 00:00:00,
2013-03-04 19:05:00,28.3,22.3,29.63,ENE,68,3.0,7.0,78,0.00,,,0.00,WeatherCatV1.13B119,2013-03-05 00:05:00,
2013-03-04 19:10:00,29.0,23.0,29.65,East,90,3.0,9.0,78,0.00,,,0.00,WeatherCatV1.13B119,2013-03-05 00:10:00,
2013-03-04 19:15:00,29.0,23.0,29.65,East,90,3.0,9.0,78,0.00,,,0.00,WeatherCatV1.13B119,2013-03-05 00:15:00,
2013-03-04 19:20:00,29.0,23.0,29.65,East,90,3.0,9.0,78,0.00,,,0.00,WeatherCatV1.13B119,2013-03-05 00:20:00,
2013-03-04 19:25:00,28.8,23.1,29.65,ESE,112,3.0,6.0,79,0.00,,,0.00,WeatherCatV1.13B119,2013-03-05 00:25:00,
2013-03-04 19:30:00,28.8,23.1,29.65,ESE,112,3.0,6.0,79,0.00,,,0.00,WeatherCatV1.13B119,2013-03-05 00:30:00,
2013-03-04 19:35:00,28.8,23.1,29.65,ESE,112,3.0,6.0,79,0.00,,,0.00,WeatherCatV1.13B119,2013-03-05 00:35:00,
2013-03-04 19:40:00,28.3,22.6,29.65,East,90,3.0,8.0,79,0.00,,,0.00,WeatherCatV1.13B119,2013-03-05 00:40:00,
2013-03-04 19:45:00,28.3,22.6,29.65,East,90,3.0,8.0,79,0.00,,,0.00,WeatherCatV1.13B119,2013-03-05 00:45:00,
2013-03-04 19:50:00,28.3,22.6,29.65,East,90,3.0,8.0,79,0.00,,,0.00,WeatherCatV1.13B119,2013-03-05 00:50:00,
2013-03-04 19:55:00,28.0,22.4,29.64,East,90,4.0,7.0,79,0.00,,,0.00,WeatherCatV1.13B119,2013-03-05 00:55:00,
2013-03-04 20:00:00,28.0,22.4,29.64,East,90,4.0,7.0,79,0.00,,,0.00,WeatherCatV1.13B119,2013-03-05 01:00:00,
2013-03-04 20:05:00,28.0,22.4,29.64,East,90,4.0,7.0,79,0.00,,,0.00,WeatherCatV1.13B119,2013-03-05 01:05:00,
2013-03-04 20:10:00,28.3,22.3,29.66,East,90,4.0,12.0,78,0.00,,,0.00,WeatherCatV1.13B119,2013-03-05 01:10:00,
2013-03-04 20:15:00,28.3,22.3,29.66,East,90,4.0,12.0,78,0.00,,,0.00,WeatherCatV1.13B119,2013-03-05 01:15:00,
2013-03-04 20:20:00,28.3,22.3,29.66,East,90,4.0,12.0,78,0.00,,,0.00,WeatherCatV1.13B119,2013-03-05 01:20:00,
2013-03-04 20:25:00,29.2,22.9,29.66,East,90,3.0,10.0,77,0.00,,,0.00,WeatherCatV1.13B119,2013-03-05 01:25:00,
2013-03-04 20:30:00,29.2,22.9,29.66,East,90,3.0,10.0,77,0.00,,,0.00,WeatherCatV1.13B119,2013-03-05 01:30:00,
2013-03-04 20:35:00,29.2,22.9,29.66,East,90,3.0,10.0,77,0.00,,,0.00,WeatherCatV1.13B119,2013-03-05 01:35:00,
2013-03-04 20:40:00,28.6,21.7,29.67,NNE,22,2.0,8.0,75,0.00,,,0.00,WeatherCatV1.13B119,2013-03-05 01:40:00,
2013-03-04 20:45:00,28.6,21.7,29.67,NNE,22,2.0,8.0,75,0.00,,,0.00,WeatherCatV1.13B119,2013-03-05 01:45:00,
2013-03-04 20:50:00,28.6,21.7,29.67,NNE,22,2.0,8.0,75,0.00,,,0.00,WeatherCatV1.13B119,2013-03-05 01:50:00,
2013-03-04 20:55:00,28.7,22.1,29.67,SE,135,2.0,7.0,76,0.00,,,0.00,WeatherCatV1.13B119,2013-03-05 01:55:00,
2013-03-04 21:00:00,28.7,22.1,29.67,SE,135,2.0,7.0,76,0.00,,,0.00,WeatherCatV1.13B119,2013-03-05 02:00:00,
2013-03-04 21:05:00,28.7,22.1,29.67,SE,135,2.0,7.0,76,0.00,,,0.00,WeatherCatV1.13B119,2013-03-05 02:05:00,
2013-03-04 21:10:00,28.7,22.4,29.68,East,90,2.0,6.0,77,0.00,,,0.00,WeatherCatV1.13B119,2013-03-05 02:10:00,
2013-03-04 21:15:00,28.7,22.4,29.68,East,90,2.0,6.0,77,0.00,,,0.00,WeatherCatV1.13B119,2013-03-05 02:15:00,
2013-03-04 21:20:00,28.7,22.4,29.68,East,90,2.0,6.0,77,0.00,,,0.00,WeatherCatV1.13B119,2013-03-05 02:20:00,
2013-03-04 21:25:00,28.5,22.5,29.69,ENE,68,1.0,6.0,78,0.00,,,0.00,WeatherCatV1.13B119,2013-03-05 02:25:00,
2013-03-04 21:30:00,28.5,22.5,29.69,ENE,68,1.0,6.0,78,0.00,,,0.00,WeatherCatV1.13B119,2013-03-05 02:30:00,
2013-03-04 21:35:00,28.5,22.5,29.69,ENE,68,1.0,6.0,78,0.00,,,0.00,WeatherCatV1.13B119,2013-03-05 02:35:00,
2013-03-04 21:40:00,28.6,22.6,29.69,East,90,1.0,5.0,78,0.00,,,0.00,WeatherCatV1.13B119,2013-03-05 02:40:00,
2013-03-04 21:45:00,28.6,22.6,29.69,East,90,1.0,5.0,78,0.00,,,0.00,WeatherCatV1.13B119,2013-03-05 02:45:00,
2013-03-04 21:50:00,28.6,22.6,29.69,East,90,1.0,5.0,78,0.00,,,0.00,WeatherCatV1.13B119,2013-03-05 02:50:00,
2013-03-04 21:55:00,28.2,22.5,29.70,West,270,1.0,4.0,79,0.00,,,0.00,WeatherCatV1.13B119,2013-03-05 02:55:00,
2013-03-04 22:00:00,28.2,22.5,29.70,West,270,1.0,4.0,79,0.00,,,0.00,WeatherCatV1.13B119,2013-03-05 03:00:00,
2013-03-04 22:05:00,28.2,22.5,29.70,West,270,1.0,4.0,79,0.00,,,0.00,WeatherCatV1.13B119,2013-03-05 03:05:00,
2013-03-04 22:10:00,28.4,22.4,29.70,SSE,158,1.0,4.0,78,0.00,,,0.00,WeatherCatV1.13B119,2013-03-05 03:10:00,
2013-03-04 22:15:00,28.4,22.4,29.70,SSE,158,1.0,4.0,78,0.00,,,0.00,WeatherCatV1.13B119,2013-03-05 03:15:00,
2013-03-04 22:20:00,28.4,22.4,29.70,SSE,158,1.0,4.0,78,0.00,,,0.00,WeatherCatV1.13B119,2013-03-05 03:20:00,
2013-03-04 22:25:00,28.3,22.3,29.71,East,90,1.0,4.0,78,0.00,,,0.00,WeatherCatV1.13B119,2013-03-05 03:25:00,
2013-03-04 22:30:00,28.3,22.3,29.71,East,90,1.0,4.0,78,0.00,,,0.00,WeatherCatV1.13B119,2013-03-05 03:30:00,
2013-03-04 22:35:00,28.3,22.3,29.71,East,90,1.0,4.0,78,0.00,,,0.00,WeatherCatV1.13B119,2013-03-05 03:35:00,
2013-03-04 22:40:00,28.6,22.6,29.72,ESE,112,1.0,4.0,78,0.00,,,0.00,WeatherCatV1.13B119,2013-03-05 03:40:00,
2013-03-04 22:45:00,28.6,22.6,29.72,ESE,112,1.0,4.0,78,0.00,,,0.00,WeatherCatV1.13B119,2013-03-05 03:45:00,
2013-03-04 22:50:00,28.6,22.6,29.72,ESE,112,1.0,4.0,78,0.00,,,0.00,WeatherCatV1.13B119,2013-03-05 03:50:00,
2013-03-04 22:55:00,28.9,22.6,29.72,ESE,112,1.0,4.0,77,0.00,,,0.00,WeatherCatV1.13B119,2013-03-05 03:55:00,
2013-03-04 23:00:00,28.9,22.6,29.72,ESE,112,1.0,4.0,77,0.00,,,0.00,WeatherCatV1.13B119,2013-03-05 04:00:00,
2013-03-04 23:05:00,28.9,22.6,29.72,ESE,112,1.0,4.0,77,0.00,,,0.00,WeatherCatV1.13B119,2013-03-05 04:05:00,
2013-03-04 23:10:00,28.8,22.5,29.72,East,90,1.0,3.0,77,0.00,,,0.00,WeatherCatV1.13B119,2013-03-05 04:10:00,
2013-03-04 23:15:00,28.8,22.5,29.72,East,90,1.0,3.0,77,0.00,,,0.00,WeatherCatV1.13B119,2013-03-05 04:15:00,
2013-03-04 23:20:00,28.8,22.5,29.72,East,90,1.0,3.0,77,0.00,,,0.00,WeatherCatV1.13B119,2013-03-05 04:20:00,
2013-03-04 23:25:00,28.9,22.6,29.71,ESE,112,2.0,5.0,77,0.00,,,0.00,WeatherCatV1.13B119,2013-03-05 04:25:00,
2013-03-04 23:30:00,28.9,22.6,29.71,ESE,112,2.0,5.0,77,0.00,,,0.00,WeatherCatV1.13B119,2013-03-05 04:30:00,
2013-03-04 23:35:00,28.9,22.6,29.71,ESE,112,2.0,5.0,77,0.00,,,0.00,WeatherCatV1.13B119,2013-03-05 04:35:00,
2013-03-04 23:40:00,28.8,22.5,29.71,East,90,3.0,9.0,77,0.00,,,0.00,WeatherCatV1.13B119,2013-03-05 04:40:00,
2013-03-04 23:45:00,28.8,22.5,29.71,East,90,3.0,9.0,77,0.00,,,0.00,WeatherCatV1.13B119,2013-03-05 04:45:00,
2013-03-04 23:50:00,28.8,22.5,29.71,East,90,3.0,9.0,77,0.00,,,0.00,WeatherCatV1.13B119,2013-03-05 04:50:00,
2013-03-04 23:55:00,28.5,22.2,29.71,East,90,3.0,7.0,77,0.00,,,0.00,WeatherCatV1.13B119,2013-03-05 04:55:00,